Ever Unicorn — 9V7963 — position and weather

sailwx.info

Track history (hours):
 
Tides and Currents Weather Stations Pressure Air Temp Water Temp Dewpoint Dewpoint Depression Visibility Wind Speed Wind Dir Waves Ship Positions

Ever Unicorn

Last reported at 2015-Aug-05 03:30 UTC. Time now 2015-Aug-05 04:19 UTC.
Position N 35°09' E 140°42'.

Length 285 m; draft 12.1 m.

Type: Ship (hazmat cat D). MMSI: 564995000.

Date/timePositionNaut miles runAvg speedWind from/ knotsBaromVisibWave heightAir tempDewpointWater temp
2015-Aug-05 03:30N 35°09' E 140°42'1818.7
2015-Aug-05 02:33N 34°60' E 140°24'1918.8
2015-Aug-05 01:33N 34°50' E 140°04'2120.7
2015-Aug-05 00:33N 34°43' E 139°40'2520.2
2015-Aug-04 23:20N 34°32' E 139°13'  
2015-Aug-02 14:29N 25°04' E 120°44'1819.2
2015-Aug-02 13:33N 24°55' E 120°27'1919.2
2015-Aug-02 12:33N 24°45' E 120°09'1919.2
2015-Aug-02 11:33N 24°34' E 119°52'2019.8
2015-Aug-02 10:32N 24°22' E 119°34'1919.4
2015-Aug-02 09:33N 24°12' E 119°16'1919.2
2015-Aug-02 08:32N 24°01' E 118°59'1919.1
2015-Aug-02 07:33N 23°50' E 118°42'1918.7
2015-Aug-02 06:33N 23°40' E 118°25'2118.3
2015-Aug-02 05:25N 23°27' E 118°07'21816.4
2015-Aug-01 16:10N 22°34' E 114°18'2 2.3
2015-Aug-01 15:26N 22°34' E 114°16'0 0.0
2015-Aug-01 14:32N 22°34' E 114°16'0 0.0
2015-Aug-01 13:20N 22°34' E 114°16'0 0.0
2015-Aug-01 10:32N 22°34' E 114°16'0 0.0
2015-Aug-01 08:20N 22°34' E 114°16'0 0.0
2015-Aug-01 07:26N 22°34' E 114°16'0 0.0
2015-Aug-01 06:32N 22°34' E 114°16'0 0.0
2015-Aug-01 05:26N 22°34' E 114°16'0 0.0
2015-Aug-01 04:08N 22°34' E 114°16'0 0.1
2015-Aug-01 03:14N 22°34' E 114°16'0 0.1
2015-Aug-01 02:32N 22°34' E 114°16'0 0.0
2015-Aug-01 00:32N 22°34' E 114°16'0 0.0
2015-Jul-31 23:32N 22°34' E 114°16'0 0.0
2015-Jul-31 20:32N 22°34' E 114°16'0 0.1
2015-Jul-31 19:32N 22°34' E 114°16'0 0.0
2015-Jul-31 18:32N 22°34' E 114°16'21 1.3
2015-Jul-31 02:31N 22°19' E 114°30'1111.7
2015-Jul-31 01:33N 22°09' E 114°24'1111.0
2015-Jul-31 00:33N 22°10' E 114°12'1111.5
2015-Jul-30 23:33N 22°19' E 114°05'10 9.4
2015-Jul-30 22:32N 22°22' E 113°55'6 5.5
2015-Jul-30 21:30N 22°27' E 113°53'0 0.0
2015-Jul-30 20:12N 22°27' E 113°53'0 0.0
2015-Jul-30 19:30N 22°27' E 113°53'0 0.0
2015-Jul-30 18:30N 22°27' E 113°53'0 0.0
2015-Jul-30 17:30N 22°27' E 113°53'0 0.0
2015-Jul-30 16:12N 22°27' E 113°53'0 0.0
2015-Jul-30 15:30N 22°27' E 113°53'0 0.0
2015-Jul-30 14:30N 22°27' E 113°53'0 0.0
2015-Jul-30 13:30N 22°27' E 113°53'0 0.0
2015-Jul-30 12:12N 22°27' E 113°53'0 0.0
2015-Jul-30 11:06N 22°27' E 113°53'0 0.0
2015-Jul-30 10:31N 22°27' E 113°53'4 4.5
2015-Jul-30 09:33N 22°23' E 113°54'1110.8
2015-Jul-30 08:33N 22°19' E 114°05'12 9.4
2015-Jul-30 07:16N 22°10' E 114°13'710.6
2015-Jul-30 06:33N 22°09' E 114°21'10 9.2
2015-Jul-30 05:31N 22°10' E 114°31'15716.8
2015-Jul-29 20:11N 22°58' E 117°13'5517.4
2015-Jul-29 17:04N 23°28' E 118°02'917.7
2015-Jul-29 16:33N 23°37' E 118°06'1918.0
2015-Jul-29 15:29N 23°54' E 118°16'1616.9
2015-Jul-29 14:33N 24°09' E 118°20'1313.1
2015-Jul-29 13:32N 24°19' E 118°11'1010.4
2015-Jul-29 12:33N 24°26' E 118°03'2 1.7
2015-Jul-29 11:06N 24°27' E 118°00'0 0.0
2015-Jul-29 03:16N 24°27' E 118°00'0 0.0
2015-Jul-29 02:33N 24°27' E 118°00'0 0.0
2015-Jul-29 01:33N 24°27' E 118°00'0 0.1
2015-Jul-29 00:31N 24°27' E 118°00'0 0.1
2015-Jul-28 23:33N 24°27' E 118°00'0 0.1
2015-Jul-28 22:33N 24°27' E 118°00'8 8.4
2015-Jul-28 21:33N 24°22' E 118°08'1312.5
2015-Jul-28 20:33N 24°13' E 118°17'1211.8
2015-Jul-28 19:33N 24°14' E 118°30'1412.9
2015-Jul-28 18:27N 24°17' E 118°46'1313.5
2015-Jul-28 17:27N 24°19' E 119°00'7014.0
2015-Jul-28 12:27N 24°48' E 120°11'2915.2
2015-Jul-28 10:31N 25°01' E 120°40'3015.0
2015-Jul-28 08:32N 25°13' E 121°09'13 6.4
2015-Jul-28 06:33N 25°10' E 121°23'  
Track history (hours):
 
Tides and Currents Weather Stations Pressure Air Temp Water Temp Dewpoint Dewpoint Depression Visibility Wind Speed Wind Dir Waves Ship Positions

Ever Unicorn

Last reported at 2015-Aug-05 03:30 UTC. Time now 2015-Aug-05 04:19 UTC.
Position N 35°09' E 140°42'.

Length 285 m; draft 12.1 m.

Type: Ship (hazmat cat D). MMSI: 564995000.

Date/timePositionNaut miles runAvg speedWind from/ knotsBaromVisibWave heightAir tempDewpointWater temp
2015-Aug-05 03:30N 35°09' E 140°42'1818.7
2015-Aug-05 02:33N 34°60' E 140°24'1918.8
2015-Aug-05 01:33N 34°50' E 140°04'2120.7
2015-Aug-05 00:33N 34°43' E 139°40'2520.2
2015-Aug-04 23:20N 34°32' E 139°13'  
2015-Aug-02 14:29N 25°04' E 120°44'1819.2
2015-Aug-02 13:33N 24°55' E 120°27'1919.2
2015-Aug-02 12:33N 24°45' E 120°09'1919.2
2015-Aug-02 11:33N 24°34' E 119°52'2019.8
2015-Aug-02 10:32N 24°22' E 119°34'1919.4
2015-Aug-02 09:33N 24°12' E 119°16'1919.2
2015-Aug-02 08:32N 24°01' E 118°59'1919.1
2015-Aug-02 07:33N 23°50' E 118°42'1918.7
2015-Aug-02 06:33N 23°40' E 118°25'2118.3
2015-Aug-02 05:25N 23°27' E 118°07'21816.4
2015-Aug-01 16:10N 22°34' E 114°18'2 2.3
2015-Aug-01 15:26N 22°34' E 114°16'0 0.0
2015-Aug-01 14:32N 22°34' E 114°16'0 0.0
2015-Aug-01 13:20N 22°34' E 114°16'0 0.0
2015-Aug-01 10:32N 22°34' E 114°16'0 0.0
2015-Aug-01 08:20N 22°34' E 114°16'0 0.0
2015-Aug-01 07:26N 22°34' E 114°16'0 0.0
2015-Aug-01 06:32N 22°34' E 114°16'0 0.0
2015-Aug-01 05:26N 22°34' E 114°16'0 0.0
2015-Aug-01 04:08N 22°34' E 114°16'0 0.1
2015-Aug-01 03:14N 22°34' E 114°16'0 0.1
2015-Aug-01 02:32N 22°34' E 114°16'0 0.0
2015-Aug-01 00:32N 22°34' E 114°16'0 0.0
2015-Jul-31 23:32N 22°34' E 114°16'0 0.0
2015-Jul-31 20:32N 22°34' E 114°16'0 0.1
2015-Jul-31 19:32N 22°34' E 114°16'0 0.0
2015-Jul-31 18:32N 22°34' E 114°16'21 1.3
2015-Jul-31 02:31N 22°19' E 114°30'1111.7
2015-Jul-31 01:33N 22°09' E 114°24'1111.0
2015-Jul-31 00:33N 22°10' E 114°12'1111.5
2015-Jul-30 23:33N 22°19' E 114°05'10 9.4
2015-Jul-30 22:32N 22°22' E 113°55'6 5.5
2015-Jul-30 21:30N 22°27' E 113°53'0 0.0
2015-Jul-30 20:12N 22°27' E 113°53'0 0.0
2015-Jul-30 19:30N 22°27' E 113°53'0 0.0
2015-Jul-30 18:30N 22°27' E 113°53'0 0.0
2015-Jul-30 17:30N 22°27' E 113°53'0 0.0
2015-Jul-30 16:12N 22°27' E 113°53'0 0.0
2015-Jul-30 15:30N 22°27' E 113°53'0 0.0
2015-Jul-30 14:30N 22°27' E 113°53'0 0.0
2015-Jul-30 13:30N 22°27' E 113°53'0 0.0
2015-Jul-30 12:12N 22°27' E 113°53'0 0.0
2015-Jul-30 11:06N 22°27' E 113°53'0 0.0
2015-Jul-30 10:31N 22°27' E 113°53'4 4.5
2015-Jul-30 09:33N 22°23' E 113°54'1110.8
2015-Jul-30 08:33N 22°19' E 114°05'12 9.4
2015-Jul-30 07:16N 22°10' E 114°13'710.6
2015-Jul-30 06:33N 22°09' E 114°21'10 9.2
2015-Jul-30 05:31N 22°10' E 114°31'15716.8
2015-Jul-29 20:11N 22°58' E 117°13'5517.4
2015-Jul-29 17:04N 23°28' E 118°02'917.7
2015-Jul-29 16:33N 23°37' E 118°06'1918.0
2015-Jul-29 15:29N 23°54' E 118°16'1616.9
2015-Jul-29 14:33N 24°09' E 118°20'1313.1
2015-Jul-29 13:32N 24°19' E 118°11'1010.4
2015-Jul-29 12:33N 24°26' E 118°03'2 1.7
2015-Jul-29 11:06N 24°27' E 118°00'0 0.0
2015-Jul-29 03:16N 24°27' E 118°00'0 0.0
2015-Jul-29 02:33N 24°27' E 118°00'0 0.0
2015-Jul-29 01:33N 24°27' E 118°00'0 0.1
2015-Jul-29 00:31N 24°27' E 118°00'0 0.1
2015-Jul-28 23:33N 24°27' E 118°00'0 0.1
2015-Jul-28 22:33N 24°27' E 118°00'8 8.4
2015-Jul-28 21:33N 24°22' E 118°08'1312.5
2015-Jul-28 20:33N 24°13' E 118°17'1211.8
2015-Jul-28 19:33N 24°14' E 118°30'1412.9
2015-Jul-28 18:27N 24°17' E 118°46'1313.5
2015-Jul-28 17:27N 24°19' E 119°00'7014.0
2015-Jul-28 12:27N 24°48' E 120°11'2915.2
2015-Jul-28 10:31N 25°01' E 120°40'3015.0
2015-Jul-28 08:32N 25°13' E 121°09'13 6.4
2015-Jul-28 06:33N 25°10' E 121°23'  

Dump ship's entire track history